sensor_id;sensor_type;location;lat;lon;timestamp;P1;durP1;ratioP1;P2;durP2;ratioP2
20369;SDS011;10344;47.592;9.600;2023-03-31T00:01:07;3.25;;;2.60;;
20369;SDS011;10344;47.592;9.600;2023-03-31T00:03:33;3.37;;;2.40;;
20369;SDS011;10344;47.592;9.600;2023-03-31T00:06:02;3.22;;;2.35;;
20369;SDS011;10344;47.592;9.600;2023-03-31T00:08:30;3.63;;;2.65;;
20369;SDS011;10344;47.592;9.600;2023-03-31T00:10:59;3.90;;;2.80;;
20369;SDS011;10344;47.592;9.600;2023-03-31T00:13:27;3.78;;;2.50;;
20369;SDS011;10344;47.592;9.600;2023-03-31T00:15:56;2.67;;;2.38;;
20369;SDS011;10344;47.592;9.600;2023-03-31T00:18:33;2.58;;;2.38;;
20369;SDS011;10344;47.592;9.600;2023-03-31T00:21:07;2.67;;;2.30;;
20369;SDS011;10344;47.592;9.600;2023-03-31T00:23:55;3.45;;;2.75;;
20369;SDS011;10344;47.592;9.600;2023-03-31T00:26:23;3.23;;;2.53;;
20369;SDS011;10344;47.592;9.600;2023-03-31T00:28:58;3.45;;;2.63;;
20369;SDS011;10344;47.592;9.600;2023-03-31T00:31:26;3.17;;;2.42;;
20369;SDS011;10344;47.592;9.600;2023-03-31T00:33:57;3.58;;;2.60;;
20369;SDS011;10344;47.592;9.600;2023-03-31T00:36:29;2.85;;;2.55;;
20369;SDS011;10344;47.592;9.600;2023-03-31T00:39:00;3.63;;;2.60;;
20369;SDS011;10344;47.592;9.600;2023-03-31T00:41:33;4.03;;;2.67;;
20369;SDS011;10344;47.592;9.600;2023-03-31T00:44:16;3.90;;;2.60;;
20369;SDS011;10344;47.592;9.600;2023-03-31T00:46:48;2.83;;;2.33;;
20369;SDS011;10344;47.592;9.600;2023-03-31T00:49:32;4.50;;;2.80;;
20369;SDS011;10344;47.592;9.600;2023-03-31T00:52:14;3.75;;;2.58;;
20369;SDS011;10344;47.592;9.600;2023-03-31T00:54:48;3.78;;;2.70;;
20369;SDS011;10344;47.592;9.600;2023-03-31T00:57:20;3.20;;;2.75;;
20369;SDS011;10344;47.592;9.600;2023-03-31T00:59:51;3.38;;;2.45;;
20369;SDS011;10344;47.592;9.600;2023-03-31T01:02:20;3.40;;;2.30;;
20369;SDS011;10344;47.592;9.600;2023-03-31T01:04:51;3.23;;;2.37;;
20369;SDS011;10344;47.592;9.600;2023-03-31T01:07:27;3.07;;;2.63;;
20369;SDS011;10344;47.592;9.600;2023-03-31T01:10:21;2.83;;;2.57;;
20369;SDS011;10344;47.592;9.600;2023-03-31T01:12:52;4.20;;;2.38;;
20369;SDS011;10344;47.592;9.600;2023-03-31T01:15:24;3.58;;;2.45;;
20369;SDS011;10344;47.592;9.600;2023-03-31T01:17:50;2.95;;;1.95;;
20369;SDS011;10344;47.592;9.600;2023-03-31T01:28:37;2.80;;;2.22;;
20369;SDS011;10344;47.592;9.600;2023-03-31T01:42:34;2.88;;;2.17;;
20369;SDS011;10344;47.592;9.600;2023-03-31T01:47:44;2.65;;;2.03;;
20369;SDS011;10344;47.592;9.600;2023-03-31T01:50:26;3.00;;;1.83;;
20369;SDS011;10344;47.592;9.600;2023-03-31T02:00:56;3.03;;;1.95;;
20369;SDS011;10344;47.592;9.600;2023-03-31T02:03:27;2.90;;;2.00;;
20369;SDS011;10344;47.592;9.600;2023-03-31T02:06:10;1.80;;;1.70;;
20369;SDS011;10344;47.592;9.600;2023-03-31T02:08:49;1.77;;;1.65;;
20369;SDS011;10344;47.592;9.600;2023-03-31T02:11:18;2.43;;;1.90;;
20369;SDS011;10344;47.592;9.600;2023-03-31T02:13:48;2.20;;;2.00;;
20369;SDS011;10344;47.592;9.600;2023-03-31T02:16:21;2.05;;;1.85;;
20369;SDS011;10344;47.592;9.600;2023-03-31T02:18:51;2.40;;;2.20;;
20369;SDS011;10344;47.592;9.600;2023-03-31T02:21:29;2.10;;;1.90;;
20369;SDS011;10344;47.592;9.600;2023-03-31T02:23:57;2.35;;;1.83;;
20369;SDS011;10344;47.592;9.600;2023-03-31T02:26:30;3.13;;;1.90;;
20369;SDS011;10344;47.592;9.600;2023-03-31T02:29:09;2.17;;;1.70;;
20369;SDS011;10344;47.592;9.600;2023-03-31T02:34:33;3.03;;;2.20;;
20369;SDS011;10344;47.592;9.600;2023-03-31T02:37:00;2.95;;;2.30;;
20369;SDS011;10344;47.592;9.600;2023-03-31T02:39:28;2.05;;;1.88;;
20369;SDS011;10344;47.592;9.600;2023-03-31T02:42:00;2.28;;;1.77;;
20369;SDS011;10344;47.592;9.600;2023-03-31T02:44:31;2.85;;;1.80;;
20369;SDS011;10344;47.592;9.600;2023-03-31T02:47:01;2.70;;;2.10;;
20369;SDS011;10344;47.592;9.600;2023-03-31T02:49:32;2.42;;;1.77;;
20369;SDS011;10344;47.592;9.600;2023-03-31T02:52:16;1.90;;;1.80;;
20369;SDS011;10344;47.592;9.600;2023-03-31T02:57:32;1.90;;;1.70;;
20369;SDS011;10344;47.592;9.600;2023-03-31T03:06:15;1.92;;;1.77;;
20369;SDS011;10344;47.592;9.600;2023-03-31T03:11:37;2.10;;;1.80;;
20369;SDS011;10344;47.592;9.600;2023-03-31T03:16:56;2.75;;;2.17;;
20369;SDS011;10344;47.592;9.600;2023-03-31T03:19:29;3.28;;;2.40;;
20369;SDS011;10344;47.592;9.600;2023-03-31T03:21:57;3.17;;;2.30;;
20369;SDS011;10344;47.592;9.600;2023-03-31T03:24:23;2.63;;;2.30;;
20369;SDS011;10344;47.592;9.600;2023-03-31T03:26:53;3.05;;;2.55;;
20369;SDS011;10344;47.592;9.600;2023-03-31T03:29:21;3.00;;;2.20;;
20369;SDS011;10344;47.592;9.600;2023-03-31T03:31:48;2.63;;;2.25;;
20369;SDS011;10344;47.592;9.600;2023-03-31T03:34:21;3.80;;;2.50;;
20369;SDS011;10344;47.592;9.600;2023-03-31T03:36:49;4.50;;;2.60;;
20369;SDS011;10344;47.592;9.600;2023-03-31T03:39:17;2.40;;;2.20;;
20369;SDS011;10344;47.592;9.600;2023-03-31T03:41:42;3.28;;;2.33;;
20369;SDS011;10344;47.592;9.600;2023-03-31T03:44:09;3.38;;;2.40;;
20369;SDS011;10344;47.592;9.600;2023-03-31T03:46:37;3.67;;;2.67;;
20369;SDS011;10344;47.592;9.600;2023-03-31T03:49:02;3.57;;;2.60;;
20369;SDS011;10344;47.592;9.600;2023-03-31T03:51:28;2.90;;;2.30;;
20369;SDS011;10344;47.592;9.600;2023-03-31T03:53:56;3.00;;;2.53;;
20369;SDS011;10344;47.592;9.600;2023-03-31T03:56:22;2.83;;;2.30;;
20369;SDS011;10344;47.592;9.600;2023-03-31T03:58:50;2.90;;;2.35;;
20369;SDS011;10344;47.592;9.600;2023-03-31T04:01:16;3.27;;;2.63;;
20369;SDS011;10344;47.592;9.600;2023-03-31T04:03:43;2.85;;;2.20;;
20369;SDS011;10344;47.592;9.600;2023-03-31T04:06:13;4.47;;;2.60;;
20369;SDS011;10344;47.592;9.600;2023-03-31T04:08:39;3.15;;;2.60;;
20369;SDS011;10344;47.592;9.600;2023-03-31T04:11:17;3.45;;;2.40;;
20369;SDS011;10344;47.592;9.600;2023-03-31T04:13:43;2.67;;;2.47;;
20369;SDS011;10344;47.592;9.600;2023-03-31T04:16:13;2.90;;;2.33;;
20369;SDS011;10344;47.592;9.600;2023-03-31T04:18:40;2.60;;;2.40;;
20369;SDS011;10344;47.592;9.600;2023-03-31T04:21:14;4.18;;;2.47;;
20369;SDS011;10344;47.592;9.600;2023-03-31T04:23:51;2.85;;;2.63;;
20369;SDS011;10344;47.592;9.600;2023-03-31T04:26:26;2.88;;;2.33;;
20369;SDS011;10344;47.592;9.600;2023-03-31T04:29:14;4.40;;;2.45;;
20369;SDS011;10344;47.592;9.600;2023-03-31T04:31:41;3.17;;;2.50;;
20369;SDS011;10344;47.592;9.600;2023-03-31T04:34:14;3.17;;;2.30;;
20369;SDS011;10344;47.592;9.600;2023-03-31T04:36:44;3.60;;;2.15;;
20369;SDS011;10344;47.592;9.600;2023-03-31T04:39:11;3.37;;;2.30;;
20369;SDS011;10344;47.592;9.600;2023-03-31T04:41:44;3.72;;;2.78;;
20369;SDS011;10344;47.592;9.600;2023-03-31T04:44:10;3.50;;;2.70;;
20369;SDS011;10344;47.592;9.600;2023-03-31T04:46:35;3.50;;;2.33;;
20369;SDS011;10344;47.592;9.600;2023-03-31T04:49:01;3.33;;;2.50;;
20369;SDS011;10344;47.592;9.600;2023-03-31T04:51:30;3.43;;;2.67;;
20369;SDS011;10344;47.592;9.600;2023-03-31T04:53:58;3.10;;;2.45;;
20369;SDS011;10344;47.592;9.600;2023-03-31T04:56:27;2.60;;;2.40;;
20369;SDS011;10344;47.592;9.600;2023-03-31T04:58:57;3.33;;;2.67;;
20369;SDS011;10344;47.592;9.600;2023-03-31T05:01:25;3.38;;;2.58;;
20369;SDS011;10344;47.592;9.600;2023-03-31T05:03:56;3.08;;;2.67;;
20369;SDS011;10344;47.592;9.600;2023-03-31T05:06:23;3.10;;;2.45;;
20369;SDS011;10344;47.592;9.600;2023-03-31T05:08:48;3.27;;;2.60;;
20369;SDS011;10344;47.592;9.600;2023-03-31T05:11:14;4.30;;;2.80;;
20369;SDS011;10344;47.592;9.600;2023-03-31T05:13:42;3.50;;;2.90;;
20369;SDS011;10344;47.592;9.600;2023-03-31T05:16:19;3.70;;;2.90;;
20369;SDS011;10344;47.592;9.600;2023-03-31T05:18:50;3.42;;;2.63;;
20369;SDS011;10344;47.592;9.600;2023-03-31T05:21:16;3.27;;;2.97;;
20369;SDS011;10344;47.592;9.600;2023-03-31T05:23:51;2.42;;;2.20;;
20369;SDS011;10344;47.592;9.600;2023-03-31T05:26:17;4.32;;;2.97;;
20369;SDS011;10344;47.592;9.600;2023-03-31T05:28:43;4.37;;;2.80;;
20369;SDS011;10344;47.592;9.600;2023-03-31T05:31:09;3.60;;;2.90;;
20369;SDS011;10344;47.592;9.600;2023-03-31T05:33:36;3.55;;;2.80;;
20369;SDS011;10344;47.592;9.600;2023-03-31T05:36:08;2.78;;;2.10;;
20369;SDS011;10344;47.592;9.600;2023-03-31T05:38:42;2.95;;;2.40;;
20369;SDS011;10344;47.592;9.600;2023-03-31T05:41:08;2.70;;;2.50;;
20369;SDS011;10344;47.592;9.600;2023-03-31T05:43:40;2.45;;;2.10;;
20369;SDS011;10344;47.592;9.600;2023-03-31T05:46:10;2.60;;;2.05;;
20369;SDS011;10344;47.592;9.600;2023-03-31T05:48:35;2.75;;;2.10;;
20369;SDS011;10344;47.592;9.600;2023-03-31T05:51:02;3.45;;;2.45;;
20369;SDS011;10344;47.592;9.600;2023-03-31T05:53:27;5.03;;;3.40;;
20369;SDS011;10344;47.592;9.600;2023-03-31T05:55:57;2.88;;;2.40;;
20369;SDS011;10344;47.592;9.600;2023-03-31T05:58:33;4.20;;;2.80;;
20369;SDS011;10344;47.592;9.600;2023-03-31T06:01:06;3.45;;;2.90;;
20369;SDS011;10344;47.592;9.600;2023-03-31T06:03:36;3.70;;;2.92;;
20369;SDS011;10344;47.592;9.600;2023-03-31T06:06:05;4.07;;;2.30;;
20369;SDS011;10344;47.592;9.600;2023-03-31T06:08:32;3.05;;;2.75;;
20369;SDS011;10344;47.592;9.600;2023-03-31T06:11:06;3.65;;;2.70;;
20369;SDS011;10344;47.592;9.600;2023-03-31T06:13:34;3.07;;;2.50;;
20369;SDS011;10344;47.592;9.600;2023-03-31T06:16:03;3.58;;;2.40;;
20369;SDS011;10344;47.592;9.600;2023-03-31T06:18:31;2.63;;;2.20;;
20369;SDS011;10344;47.592;9.600;2023-03-31T06:20:58;3.10;;;2.72;;
20369;SDS011;10344;47.592;9.600;2023-03-31T06:23:24;3.05;;;2.70;;
20369;SDS011;10344;47.592;9.600;2023-03-31T06:25:50;3.20;;;2.50;;
20369;SDS011;10344;47.592;9.600;2023-03-31T06:28:19;3.28;;;2.90;;
20369;SDS011;10344;47.592;9.600;2023-03-31T06:30:46;3.37;;;2.80;;
20369;SDS011;10344;47.592;9.600;2023-03-31T06:33:11;2.50;;;2.10;;
20369;SDS011;10344;47.592;9.600;2023-03-31T06:35:40;3.63;;;2.50;;
20369;SDS011;10344;47.592;9.600;2023-03-31T06:38:11;3.00;;;2.28;;
20369;SDS011;10344;47.592;9.600;2023-03-31T06:40:39;3.00;;;2.63;;
20369;SDS011;10344;47.592;9.600;2023-03-31T06:43:08;5.10;;;2.72;;
20369;SDS011;10344;47.592;9.600;2023-03-31T06:45:40;3.33;;;2.50;;
20369;SDS011;10344;47.592;9.600;2023-03-31T06:48:08;2.80;;;2.40;;
20369;SDS011;10344;47.592;9.600;2023-03-31T06:50:36;3.00;;;2.40;;
20369;SDS011;10344;47.592;9.600;2023-03-31T06:53:08;2.60;;;2.40;;
20369;SDS011;10344;47.592;9.600;2023-03-31T06:55:37;3.58;;;2.95;;
20369;SDS011;10344;47.592;9.600;2023-03-31T06:58:08;3.65;;;3.15;;
20369;SDS011;10344;47.592;9.600;2023-03-31T07:00:34;4.07;;;3.05;;
20369;SDS011;10344;47.592;9.600;2023-03-31T07:02:59;3.40;;;3.10;;
20369;SDS011;10344;47.592;9.600;2023-03-31T07:05:26;3.85;;;2.92;;
20369;SDS011;10344;47.592;9.600;2023-03-31T07:08:00;4.13;;;3.00;;
20369;SDS011;10344;47.592;9.600;2023-03-31T07:10:27;3.20;;;2.85;;
20369;SDS011;10344;47.592;9.600;2023-03-31T07:12:58;3.85;;;3.00;;
20369;SDS011;10344;47.592;9.600;2023-03-31T07:15:24;3.03;;;2.70;;
20369;SDS011;10344;47.592;9.600;2023-03-31T07:17:58;2.85;;;2.65;;
20369;SDS011;10344;47.592;9.600;2023-03-31T07:20:27;4.32;;;3.13;;
20369;SDS011;10344;47.592;9.600;2023-03-31T07:22:58;3.85;;;3.20;;
20369;SDS011;10344;47.592;9.600;2023-03-31T07:25:24;4.82;;;2.95;;
20369;SDS011;10344;47.592;9.600;2023-03-31T07:27:49;3.73;;;2.70;;
20369;SDS011;10344;47.592;9.600;2023-03-31T07:30:23;3.25;;;2.30;;
20369;SDS011;10344;47.592;9.600;2023-03-31T07:32:49;2.63;;;2.33;;
20369;SDS011;10344;47.592;9.600;2023-03-31T07:35:16;4.40;;;2.88;;
20369;SDS011;10344;47.592;9.600;2023-03-31T07:37:43;3.05;;;2.60;;
20369;SDS011;10344;47.592;9.600;2023-03-31T07:40:12;3.03;;;2.70;;
20369;SDS011;10344;47.592;9.600;2023-03-31T07:42:47;3.50;;;3.00;;
20369;SDS011;10344;47.592;9.600;2023-03-31T07:45:20;3.00;;;2.42;;
20369;SDS011;10344;47.592;9.600;2023-03-31T07:47:48;2.92;;;2.63;;
20369;SDS011;10344;47.592;9.600;2023-03-31T07:50:14;3.95;;;2.75;;
20369;SDS011;10344;47.592;9.600;2023-03-31T07:52:45;3.08;;;2.70;;
20369;SDS011;10344;47.592;9.600;2023-03-31T07:55:13;5.15;;;3.55;;
20369;SDS011;10344;47.592;9.600;2023-03-31T07:57:47;6.85;;;3.70;;
20369;SDS011;10344;47.592;9.600;2023-03-31T08:00:13;5.53;;;3.45;;
20369;SDS011;10344;47.592;9.600;2023-03-31T08:02:43;5.78;;;3.60;;
20369;SDS011;10344;47.592;9.600;2023-03-31T08:05:11;5.82;;;3.58;;
20369;SDS011;10344;47.592;9.600;2023-03-31T08:07:42;4.32;;;3.80;;
20369;SDS011;10344;47.592;9.600;2023-03-31T08:10:15;5.22;;;3.58;;
20369;SDS011;10344;47.592;9.600;2023-03-31T08:13:08;4.68;;;3.40;;
20369;SDS011;10344;47.592;9.600;2023-03-31T08:15:34;5.45;;;3.42;;
20369;SDS011;10344;47.592;9.600;2023-03-31T08:18:06;5.28;;;3.40;;
20369;SDS011;10344;47.592;9.600;2023-03-31T08:20:32;4.70;;;3.58;;
20369;SDS011;10344;47.592;9.600;2023-03-31T08:22:58;4.10;;;3.07;;
20369;SDS011;10344;47.592;9.600;2023-03-31T08:25:31;3.88;;;3.15;;
20369;SDS011;10344;47.592;9.600;2023-03-31T08:27:57;5.50;;;3.13;;
20369;SDS011;10344;47.592;9.600;2023-03-31T08:30:22;2.93;;;2.63;;
20369;SDS011;10344;47.592;9.600;2023-03-31T08:32:55;3.80;;;2.80;;
20369;SDS011;10344;47.592;9.600;2023-03-31T08:35:25;5.53;;;2.83;;
20369;SDS011;10344;47.592;9.600;2023-03-31T08:37:50;3.80;;;2.60;;
20369;SDS011;10344;47.592;9.600;2023-03-31T08:40:19;3.37;;;2.80;;
20369;SDS011;10344;47.592;9.600;2023-03-31T08:42:50;4.85;;;2.90;;
20369;SDS011;10344;47.592;9.600;2023-03-31T08:45:38;4.15;;;3.72;;
20369;SDS011;10344;47.592;9.600;2023-03-31T08:51:19;4.53;;;2.93;;
20369;SDS011;10344;47.592;9.600;2023-03-31T08:53:48;4.47;;;2.88;;
20369;SDS011;10344;47.592;9.600;2023-03-31T08:56:35;3.22;;;2.70;;
20369;SDS011;10344;47.592;9.600;2023-03-31T08:59:16;2.75;;;2.20;;
20369;SDS011;10344;47.592;9.600;2023-03-31T09:12:41;2.00;;;1.75;;
20369;SDS011;10344;47.592;9.600;2023-03-31T09:18:49;2.00;;;1.77;;
20369;SDS011;10344;47.592;9.600;2023-03-31T09:23:50;1.85;;;1.70;;
20369;SDS011;10344;47.592;9.600;2023-03-31T09:30:04;2.47;;;2.00;;
20369;SDS011;10344;47.592;9.600;2023-03-31T09:32:29;3.20;;;2.10;;
20369;SDS011;10344;47.592;9.600;2023-03-31T09:37:53;2.60;;;2.05;;
20369;SDS011;10344;47.592;9.600;2023-03-31T09:40:23;2.67;;;2.33;;
20369;SDS011;10344;47.592;9.600;2023-03-31T09:42:53;2.58;;;2.10;;
20369;SDS011;10344;47.592;9.600;2023-03-31T09:45:47;3.10;;;2.00;;
20369;SDS011;10344;47.592;9.600;2023-03-31T09:48:13;3.05;;;2.17;;
20369;SDS011;10344;47.592;9.600;2023-03-31T09:50:50;2.78;;;2.17;;
20369;SDS011;10344;47.592;9.600;2023-03-31T09:56:43;3.28;;;2.00;;
20369;SDS011;10344;47.592;9.600;2023-03-31T09:59:19;3.17;;;2.25;;
20369;SDS011;10344;47.592;9.600;2023-03-31T10:01:48;3.13;;;2.13;;
20369;SDS011;10344;47.592;9.600;2023-03-31T10:04:23;2.58;;;1.90;;
20369;SDS011;10344;47.592;9.600;2023-03-31T10:06:59;3.57;;;2.47;;
20369;SDS011;10344;47.592;9.600;2023-03-31T10:09:29;5.05;;;2.60;;
20369;SDS011;10344;47.592;9.600;2023-03-31T10:14:39;4.25;;;2.30;;
20369;SDS011;10344;47.592;9.600;2023-03-31T10:17:26;3.70;;;2.38;;
20369;SDS011;10344;47.592;9.600;2023-03-31T10:20:13;2.75;;;2.40;;
20369;SDS011;10344;47.592;9.600;2023-03-31T10:23:17;3.47;;;2.70;;
20369;SDS011;10344;47.592;9.600;2023-03-31T10:26:12;3.75;;;2.50;;
20369;SDS011;10344;47.592;9.600;2023-03-31T10:28:42;6.35;;;2.42;;
20369;SDS011;10344;47.592;9.600;2023-03-31T10:31:19;4.00;;;2.42;;
20369;SDS011;10344;47.592;9.600;2023-03-31T10:34:04;4.18;;;2.88;;
20369;SDS011;10344;47.592;9.600;2023-03-31T10:36:32;3.85;;;2.90;;
20369;SDS011;10344;47.592;9.600;2023-03-31T10:38:59;3.83;;;2.90;;
20369;SDS011;10344;47.592;9.600;2023-03-31T10:41:33;3.10;;;2.40;;
20369;SDS011;10344;47.592;9.600;2023-03-31T10:44:01;4.35;;;2.53;;
20369;SDS011;10344;47.592;9.600;2023-03-31T10:49:55;3.47;;;1.80;;
20369;SDS011;10344;47.592;9.600;2023-03-31T10:52:22;2.87;;;1.60;;
20369;SDS011;10344;47.592;9.600;2023-03-31T10:54:59;2.70;;;1.60;;
20369;SDS011;10344;47.592;9.600;2023-03-31T11:00:31;2.35;;;1.70;;
20369;SDS011;10344;47.592;9.600;2023-03-31T11:29:51;2.80;;;1.50;;
20369;SDS011;10344;47.592;9.600;2023-03-31T11:35:37;4.10;;;1.77;;
20369;SDS011;10344;47.592;9.600;2023-03-31T11:41:07;5.85;;;2.00;;
20369;SDS011;10344;47.592;9.600;2023-03-31T11:43:54;2.88;;;1.40;;
20369;SDS011;10344;47.592;9.600;2023-03-31T11:46:32;2.83;;;1.60;;
20369;SDS011;10344;47.592;9.600;2023-03-31T11:49:18;2.58;;;1.60;;
20369;SDS011;10344;47.592;9.600;2023-03-31T11:52:08;2.47;;;1.70;;
20369;SDS011;10344;47.592;9.600;2023-03-31T12:00:05;3.63;;;1.60;;
20369;SDS011;10344;47.592;9.600;2023-03-31T12:02:47;3.67;;;1.85;;
20369;SDS011;10344;47.592;9.600;2023-03-31T12:05:15;2.15;;;1.60;;
20369;SDS011;10344;47.592;9.600;2023-03-31T12:07:47;4.80;;;1.80;;
20369;SDS011;10344;47.592;9.600;2023-03-31T12:10:41;4.40;;;2.00;;
20369;SDS011;10344;47.592;9.600;2023-03-31T12:16:20;2.90;;;1.90;;
20369;SDS011;10344;47.592;9.600;2023-03-31T12:21:33;3.80;;;1.92;;
20369;SDS011;10344;47.592;9.600;2023-03-31T12:24:03;4.47;;;2.17;;
20369;SDS011;10344;47.592;9.600;2023-03-31T12:26:46;5.25;;;1.83;;
20369;SDS011;10344;47.592;9.600;2023-03-31T12:29:36;3.75;;;1.90;;
20369;SDS011;10344;47.592;9.600;2023-03-31T12:32:13;4.53;;;1.97;;
20369;SDS011;10344;47.592;9.600;2023-03-31T12:34:57;3.70;;;1.90;;
20369;SDS011;10344;47.592;9.600;2023-03-31T12:45:28;2.28;;;2.00;;
20369;SDS011;10344;47.592;9.600;2023-03-31T12:56:08;4.00;;;2.13;;
20369;SDS011;10344;47.592;9.600;2023-03-31T12:58:38;3.77;;;2.40;;
20369;SDS011;10344;47.592;9.600;2023-03-31T13:01:16;3.03;;;2.38;;
20369;SDS011;10344;47.592;9.600;2023-03-31T13:03:48;3.80;;;2.20;;
20369;SDS011;10344;47.592;9.600;2023-03-31T13:11:57;3.00;;;2.00;;
20369;SDS011;10344;47.592;9.600;2023-03-31T13:14:37;3.25;;;1.83;;
20369;SDS011;10344;47.592;9.600;2023-03-31T13:19:50;3.67;;;1.90;;
20369;SDS011;10344;47.592;9.600;2023-03-31T13:22:27;2.10;;;1.40;;
20369;SDS011;10344;47.592;9.600;2023-03-31T13:30:48;1.95;;;1.13;;
20369;SDS011;10344;47.592;9.600;2023-03-31T13:35:50;1.92;;;1.50;;
20369;SDS011;10344;47.592;9.600;2023-03-31T13:38:35;1.55;;;1.15;;
20369;SDS011;10344;47.592;9.600;2023-03-31T13:50:07;1.60;;;1.13;;
20369;SDS011;10344;47.592;9.600;2023-03-31T14:06:52;1.17;;;1.08;;
20369;SDS011;10344;47.592;9.600;2023-03-31T14:12:01;2.83;;;1.30;;
20369;SDS011;10344;47.592;9.600;2023-03-31T14:15:03;2.50;;;1.40;;
20369;SDS011;10344;47.592;9.600;2023-03-31T14:17:47;1.60;;;1.10;;
20369;SDS011;10344;47.592;9.600;2023-03-31T14:31:15;1.35;;;1.20;;
20369;SDS011;10344;47.592;9.600;2023-03-31T14:37:31;1.97;;;1.40;;
20369;SDS011;10344;47.592;9.600;2023-03-31T14:39:54;1.73;;;1.52;;
20369;SDS011;10344;47.592;9.600;2023-03-31T14:42:38;1.70;;;1.43;;
20369;SDS011;10344;47.592;9.600;2023-03-31T14:45:16;2.42;;;1.50;;
20369;SDS011;10344;47.592;9.600;2023-03-31T14:47:57;1.30;;;1.20;;
20369;SDS011;10344;47.592;9.600;2023-03-31T14:50:45;2.95;;;1.40;;
20369;SDS011;10344;47.592;9.600;2023-03-31T14:53:22;1.23;;;1.10;;
20369;SDS011;10344;47.592;9.600;2023-03-31T14:55:53;1.65;;;1.20;;
20369;SDS011;10344;47.592;9.600;2023-03-31T14:58:34;1.85;;;1.10;;
20369;SDS011;10344;47.592;9.600;2023-03-31T15:01:05;1.88;;;1.08;;
20369;SDS011;10344;47.592;9.600;2023-03-31T15:03:41;1.73;;;0.97;;
20369;SDS011;10344;47.592;9.600;2023-03-31T15:06:08;1.63;;;0.95;;
20369;SDS011;10344;47.592;9.600;2023-03-31T15:08:37;1.08;;;0.80;;
20369;SDS011;10344;47.592;9.600;2023-03-31T15:11:04;1.47;;;1.00;;
20369;SDS011;10344;47.592;9.600;2023-03-31T15:13:33;0.65;;;0.60;;
20369;SDS011;10344;47.592;9.600;2023-03-31T15:19:15;1.20;;;0.80;;
20369;SDS011;10344;47.592;9.600;2023-03-31T15:21:43;1.55;;;0.90;;
20369;SDS011;10344;47.592;9.600;2023-03-31T15:24:20;0.82;;;0.77;;
20369;SDS011;10344;47.592;9.600;2023-03-31T15:27:20;1.33;;;0.65;;
20369;SDS011;10344;47.592;9.600;2023-03-31T15:29:53;0.98;;;0.70;;
20369;SDS011;10344;47.592;9.600;2023-03-31T15:32:31;0.93;;;0.70;;
20369;SDS011;10344;47.592;9.600;2023-03-31T15:35:06;1.48;;;1.00;;
20369;SDS011;10344;47.592;9.600;2023-03-31T15:37:51;1.13;;;0.95;;
20369;SDS011;10344;47.592;9.600;2023-03-31T15:40:30;1.38;;;0.73;;
20369;SDS011;10344;47.592;9.600;2023-03-31T15:43:11;1.50;;;0.90;;
20369;SDS011;10344;47.592;9.600;2023-03-31T15:45:45;0.90;;;0.80;;
20369;SDS011;10344;47.592;9.600;2023-03-31T15:51:31;1.10;;;0.77;;
20369;SDS011;10344;47.592;9.600;2023-03-31T15:54:10;1.38;;;1.00;;
20369;SDS011;10344;47.592;9.600;2023-03-31T15:57:08;1.40;;;1.00;;
20369;SDS011;10344;47.592;9.600;2023-03-31T15:59:50;2.85;;;1.10;;
20369;SDS011;10344;47.592;9.600;2023-03-31T16:02:21;1.92;;;1.05;;
20369;SDS011;10344;47.592;9.600;2023-03-31T16:05:01;1.58;;;0.75;;
20369;SDS011;10344;47.592;9.600;2023-03-31T16:07:30;1.20;;;0.90;;
20369;SDS011;10344;47.592;9.600;2023-03-31T16:10:14;1.33;;;0.70;;
20369;SDS011;10344;47.592;9.600;2023-03-31T16:12:53;1.65;;;0.63;;
20369;SDS011;10344;47.592;9.600;2023-03-31T16:15:34;1.27;;;0.75;;
20369;SDS011;10344;47.592;9.600;2023-03-31T16:18:22;1.55;;;0.70;;
20369;SDS011;10344;47.592;9.600;2023-03-31T16:20:54;1.10;;;1.00;;
20369;SDS011;10344;47.592;9.600;2023-03-31T16:23:26;1.60;;;1.00;;
20369;SDS011;10344;47.592;9.600;2023-03-31T16:25:54;2.55;;;0.90;;
20369;SDS011;10344;47.592;9.600;2023-03-31T16:28:21;1.27;;;0.90;;
20369;SDS011;10344;47.592;9.600;2023-03-31T16:30:52;1.40;;;1.00;;
20369;SDS011;10344;47.592;9.600;2023-03-31T16:33:19;0.93;;;0.80;;
20369;SDS011;10344;47.592;9.600;2023-03-31T16:35:55;1.20;;;0.68;;
20369;SDS011;10344;47.592;9.600;2023-03-31T16:38:29;1.38;;;0.88;;
20369;SDS011;10344;47.592;9.600;2023-03-31T16:40:55;1.00;;;0.90;;
20369;SDS011;10344;47.592;9.600;2023-03-31T16:43:26;1.17;;;1.08;;
20369;SDS011;10344;47.592;9.600;2023-03-31T16:45:56;2.58;;;1.02;;
20369;SDS011;10344;47.592;9.600;2023-03-31T16:48:30;3.00;;;1.17;;
20369;SDS011;10344;47.592;9.600;2023-03-31T16:51:05;1.25;;;0.73;;
20369;SDS011;10344;47.592;9.600;2023-03-31T16:53:31;0.70;;;0.67;;
20369;SDS011;10344;47.592;9.600;2023-03-31T16:56:02;2.75;;;0.70;;
20369;SDS011;10344;47.592;9.600;2023-03-31T16:58:32;1.35;;;0.80;;
20369;SDS011;10344;47.592;9.600;2023-03-31T17:01:02;1.23;;;0.70;;
20369;SDS011;10344;47.592;9.600;2023-03-31T17:03:31;1.67;;;0.90;;
20369;SDS011;10344;47.592;9.600;2023-03-31T17:05:57;2.65;;;0.90;;
20369;SDS011;10344;47.592;9.600;2023-03-31T17:08:41;1.60;;;1.05;;
20369;SDS011;10344;47.592;9.600;2023-03-31T17:11:07;1.17;;;0.60;;
20369;SDS011;10344;47.592;9.600;2023-03-31T17:13:40;1.33;;;0.80;;
20369;SDS011;10344;47.592;9.600;2023-03-31T17:16:07;1.40;;;0.98;;
20369;SDS011;10344;47.592;9.600;2023-03-31T17:18:41;0.95;;;0.85;;
20369;SDS011;10344;47.592;9.600;2023-03-31T17:21:16;1.50;;;0.90;;
20369;SDS011;10344;47.592;9.600;2023-03-31T17:23:45;0.80;;;0.80;;
20369;SDS011;10344;47.592;9.600;2023-03-31T17:26:17;0.75;;;0.70;;
20369;SDS011;10344;47.592;9.600;2023-03-31T17:28:43;0.73;;;0.65;;
20369;SDS011;10344;47.592;9.600;2023-03-31T17:31:18;2.00;;;1.00;;
20369;SDS011;10344;47.592;9.600;2023-03-31T17:33:52;0.80;;;0.60;;
20369;SDS011;10344;47.592;9.600;2023-03-31T17:36:18;0.60;;;0.60;;
20369;SDS011;10344;47.592;9.600;2023-03-31T17:38:44;1.63;;;0.70;;
20369;SDS011;10344;47.592;9.600;2023-03-31T17:41:14;0.90;;;0.70;;
20369;SDS011;10344;47.592;9.600;2023-03-31T17:43:43;2.13;;;0.82;;
20369;SDS011;10344;47.592;9.600;2023-03-31T17:46:16;1.13;;;1.03;;
20369;SDS011;10344;47.592;9.600;2023-03-31T17:48:42;1.00;;;0.90;;
20369;SDS011;10344;47.592;9.600;2023-03-31T17:51:14;0.87;;;0.60;;
20369;SDS011;10344;47.592;9.600;2023-03-31T17:53:42;1.52;;;0.80;;
20369;SDS011;10344;47.592;9.600;2023-03-31T17:56:09;1.35;;;0.80;;
20369;SDS011;10344;47.592;9.600;2023-03-31T17:58:39;1.15;;;0.93;;
20369;SDS011;10344;47.592;9.600;2023-03-31T18:01:12;2.20;;;0.90;;
20369;SDS011;10344;47.592;9.600;2023-03-31T18:03:40;1.30;;;1.20;;
20369;SDS011;10344;47.592;9.600;2023-03-31T18:06:16;1.95;;;1.27;;
20369;SDS011;10344;47.592;9.600;2023-03-31T18:08:41;3.25;;;1.88;;
20369;SDS011;10344;47.592;9.600;2023-03-31T18:11:13;2.60;;;1.67;;
20369;SDS011;10344;47.592;9.600;2023-03-31T18:13:39;3.05;;;1.40;;
20369;SDS011;10344;47.592;9.600;2023-03-31T18:16:06;1.60;;;1.35;;
20369;SDS011;10344;47.592;9.600;2023-03-31T18:18:33;2.15;;;1.08;;
20369;SDS011;10344;47.592;9.600;2023-03-31T18:21:06;2.65;;;1.48;;
20369;SDS011;10344;47.592;9.600;2023-03-31T18:23:38;1.38;;;1.27;;
20369;SDS011;10344;47.592;9.600;2023-03-31T18:26:07;2.83;;;1.67;;
20369;SDS011;10344;47.592;9.600;2023-03-31T18:28:34;2.45;;;1.50;;
20369;SDS011;10344;47.592;9.600;2023-03-31T18:31:02;1.73;;;1.25;;
20369;SDS011;10344;47.592;9.600;2023-03-31T18:33:32;1.90;;;0.98;;
20369;SDS011;10344;47.592;9.600;2023-03-31T18:35:59;1.65;;;1.10;;
20369;SDS011;10344;47.592;9.600;2023-03-31T18:38:25;2.55;;;1.33;;
20369;SDS011;10344;47.592;9.600;2023-03-31T18:40:57;1.52;;;1.27;;
20369;SDS011;10344;47.592;9.600;2023-03-31T18:43:30;1.73;;;1.40;;
20369;SDS011;10344;47.592;9.600;2023-03-31T18:45:57;3.47;;;1.60;;
20369;SDS011;10344;47.592;9.600;2023-03-31T18:48:25;2.60;;;1.50;;